createdAt,value
2023-03-07T00:02:26.401Z,3.88
2023-03-07T00:04:55.608Z,3.71
2023-03-07T00:07:23.920Z,3.89
2023-03-07T00:09:53.263Z,3.84
2023-03-07T00:12:22.436Z,3.97
2023-03-07T00:14:50.538Z,3.84
2023-03-07T00:17:18.668Z,4.05
2023-03-07T00:19:48.362Z,4.24
2023-03-07T00:22:16.432Z,3.85
2023-03-07T00:24:44.558Z,4.13
2023-03-07T00:27:12.603Z,4.11
2023-03-07T00:29:40.826Z,4.32
2023-03-07T00:32:09.135Z,4.10
2023-03-07T00:34:37.228Z,3.92
2023-03-07T00:37:06.705Z,4.26
2023-03-07T00:39:38.175Z,4.03
2023-03-07T00:42:06.502Z,4.19
2023-03-07T00:44:34.541Z,3.75
2023-03-07T00:47:03.090Z,3.80
2023-03-07T00:49:31.791Z,4.18
2023-03-07T00:52:00.056Z,3.69
2023-03-07T00:54:31.058Z,3.82
2023-03-07T00:56:59.258Z,3.32
2023-03-07T00:59:27.325Z,3.44
2023-03-07T01:01:55.617Z,4.03
2023-03-07T01:04:23.695Z,4.33
2023-03-07T01:06:51.907Z,4.40
2023-03-07T01:09:19.937Z,4.51
2023-03-07T01:11:50.783Z,4.55
2023-03-07T01:14:19.340Z,4.57
2023-03-07T01:16:47.433Z,4.52
2023-03-07T01:19:15.997Z,4.55
2023-03-07T01:21:44.965Z,4.45
2023-03-07T01:24:15.136Z,4.18
2023-03-07T01:26:43.786Z,3.49
2023-03-07T01:29:13.924Z,3.65
2023-03-07T01:31:42.374Z,3.87
2023-03-07T01:34:10.758Z,4.18
2023-03-07T01:36:39.159Z,4.20
2023-03-07T01:39:13.151Z,4.32
2023-03-07T01:41:49.289Z,4.32
2023-03-07T01:44:23.505Z,4.40
2023-03-07T01:46:54.406Z,3.71
2023-03-07T01:49:29.594Z,3.82
2023-03-07T01:52:05.925Z,4.18
2023-03-07T01:54:39.564Z,4.37
2023-03-07T01:57:07.836Z,4.47
2023-03-07T01:59:43.705Z,4.51
2023-03-07T02:02:17.115Z,4.61
2023-03-07T02:04:50.628Z,4.48
2023-03-07T02:07:23.472Z,4.52
2023-03-07T02:09:53.208Z,4.49
2023-03-07T02:12:23.138Z,4.46
2023-03-07T02:14:53.764Z,4.64
2023-03-07T02:17:22.448Z,4.68
2023-03-07T02:20:05.853Z,4.42
2023-03-07T02:22:33.958Z,4.51
2023-03-07T02:25:07.223Z,4.51
2023-03-07T02:27:38.908Z,3.83
2023-03-07T02:30:10.459Z,3.57
2023-03-07T02:32:38.889Z,4.05
2023-03-07T02:35:15.836Z,3.62
2023-03-07T02:37:48.387Z,3.90
2023-03-07T02:40:21.769Z,3.13
2023-03-07T02:42:53.697Z,3.42
2023-03-07T02:45:21.873Z,4.04
2023-03-07T02:47:49.890Z,4.22
2023-03-07T02:50:19.566Z,4.23
2023-03-07T02:52:52.169Z,4.32
2023-03-07T02:55:20.369Z,4.41
2023-03-07T02:57:59.958Z,4.63
2023-03-07T03:00:28.360Z,4.74
2023-03-07T03:02:56.561Z,4.77
2023-03-07T03:05:25.076Z,4.69
2023-03-07T03:07:53.984Z,4.49
2023-03-07T03:10:22.104Z,4.05
2023-03-07T03:12:50.494Z,4.03
2023-03-07T03:15:20.679Z,4.11
2023-03-07T03:17:48.991Z,4.22
2023-03-07T03:20:17.851Z,3.59
2023-03-07T03:22:45.995Z,4.11
2023-03-07T03:25:15.604Z,4.35
2023-03-07T03:27:45.409Z,4.38
2023-03-07T03:30:14.664Z,4.51
2023-03-07T03:32:44.414Z,4.55
2023-03-07T03:35:15.748Z,4.53
2023-03-07T03:37:44.633Z,4.45
2023-03-07T03:40:17.327Z,4.65
2023-03-07T03:42:46.923Z,4.65
2023-03-07T03:45:17.415Z,4.58
2023-03-07T03:47:48.602Z,4.72
2023-03-07T03:50:17.870Z,4.75
2023-03-07T03:52:46.077Z,4.60
2023-03-07T03:55:14.433Z,4.63
2023-03-07T03:57:42.950Z,4.50
2023-03-07T04:00:14.909Z,4.56
2023-03-07T04:02:43.726Z,4.58
2023-03-07T04:05:17.129Z,4.21
2023-03-07T04:07:45.660Z,4.38
2023-03-07T04:10:13.822Z,4.46
2023-03-07T04:12:42.105Z,4.44
2023-03-07T04:15:11.731Z,4.45
2023-03-07T04:17:39.997Z,4.45
2023-03-07T04:20:14.343Z,4.46
2023-03-07T04:22:44.206Z,4.41
2023-03-07T04:25:13.094Z,4.44
2023-03-07T04:27:41.385Z,4.43
2023-03-07T04:30:11.028Z,4.45
2023-03-07T04:32:42.566Z,4.41
2023-03-07T04:35:11.008Z,4.41
2023-03-07T04:37:39.076Z,4.43
2023-03-07T04:40:10.056Z,4.43
2023-03-07T04:42:38.313Z,4.41
2023-03-07T04:45:07.566Z,4.40
2023-03-07T04:47:35.706Z,4.39
2023-03-07T04:50:03.952Z,4.35
2023-03-07T04:52:34.205Z,4.33
2023-03-07T04:55:02.374Z,4.35
2023-03-07T04:57:32.068Z,4.14
2023-03-07T05:00:00.372Z,3.99
2023-03-07T05:02:28.715Z,4.05
2023-03-07T05:04:57.522Z,4.05
2023-03-07T05:07:25.753Z,4.03
2023-03-07T05:09:54.162Z,3.84
2023-03-07T05:12:22.558Z,3.80
2023-03-07T05:14:52.856Z,3.71
2023-03-07T05:17:21.398Z,3.61
2023-03-07T05:19:49.594Z,2.86
2023-03-07T05:22:17.751Z,3.24
2023-03-07T05:24:45.846Z,3.27
2023-03-07T05:27:14.032Z,3.50
2023-03-07T05:29:42.132Z,3.55
2023-03-07T05:32:11.929Z,3.52
2023-03-07T05:34:40.898Z,3.34
2023-03-07T05:37:10.150Z,3.40
2023-03-07T05:39:38.361Z,2.99
2023-03-07T05:42:06.802Z,3.07
2023-03-07T05:44:36.582Z,3.46
2023-03-07T05:47:06.538Z,3.70
2023-03-07T05:49:36.541Z,3.50
2023-03-07T05:52:05.414Z,3.56
2023-03-07T05:54:33.478Z,3.57
2023-03-07T05:57:01.631Z,3.69
2023-03-07T05:59:30.206Z,3.51
2023-03-07T06:01:58.329Z,3.67
2023-03-07T06:04:26.435Z,3.95
2023-03-07T06:06:55.899Z,4.52
2023-03-07T06:09:25.968Z,4.07
2023-03-07T06:11:56.349Z,4.48
2023-03-07T06:14:24.932Z,4.24
2023-03-07T06:16:52.986Z,3.94
2023-03-07T06:19:21.452Z,4.10
2023-03-07T06:21:51.036Z,3.82
2023-03-07T06:24:22.177Z,4.37
2023-03-07T06:26:51.073Z,4.36
2023-03-07T06:29:22.101Z,4.35
2023-03-07T06:31:51.149Z,4.25
2023-03-07T06:34:19.248Z,4.17
2023-03-07T06:36:49.228Z,4.53
2023-03-07T06:39:21.289Z,4.54
2023-03-07T06:41:53.964Z,4.03
2023-03-07T06:44:22.076Z,4.71
2023-03-07T06:46:50.803Z,4.64
2023-03-07T06:49:22.054Z,4.65
2023-03-07T06:51:51.569Z,4.77
2023-03-07T06:54:20.059Z,4.40
2023-03-07T06:56:48.486Z,4.98
2023-03-07T06:59:22.476Z,5.11
2023-03-07T07:01:51.353Z,5.34
2023-03-07T07:04:21.131Z,5.20
2023-03-07T07:06:50.697Z,5.35
2023-03-07T07:09:19.408Z,4.91
2023-03-07T07:11:47.713Z,4.76
2023-03-07T07:14:15.790Z,4.69
2023-03-07T07:16:45.400Z,4.71
2023-03-07T07:19:13.605Z,4.64
2023-03-07T07:21:42.734Z,4.72
2023-03-07T07:24:12.888Z,4.61
2023-03-07T07:26:41.500Z,4.29
2023-03-07T07:29:09.913Z,4.59
2023-03-07T07:31:38.707Z,5.03
2023-03-07T07:34:08.453Z,4.46
2023-03-07T07:36:36.621Z,4.50
2023-03-07T07:39:05.464Z,4.74
2023-03-07T07:41:35.672Z,5.21
2023-03-07T07:44:04.361Z,5.14
2023-03-07T07:46:37.419Z,4.76
2023-03-07T07:49:08.839Z,4.41
2023-03-07T07:51:37.438Z,4.54
2023-03-07T07:54:05.653Z,4.60
2023-03-07T07:56:34.018Z,4.32
2023-03-07T07:59:02.202Z,4.59
2023-03-07T08:01:30.582Z,4.40
2023-03-07T08:03:58.607Z,5.01
2023-03-07T08:06:29.708Z,5.00
2023-03-07T08:09:00.195Z,4.91
2023-03-07T08:11:28.557Z,4.72
2023-03-07T08:13:56.806Z,5.02
2023-03-07T08:16:26.196Z,4.79
2023-03-07T08:18:56.350Z,5.03
2023-03-07T08:21:25.111Z,4.87
2023-03-07T08:23:55.009Z,4.76
2023-03-07T08:26:23.460Z,4.50
2023-03-07T08:28:51.520Z,4.79
2023-03-07T08:31:23.662Z,4.55
2023-03-07T08:33:52.710Z,4.76
2023-03-07T08:36:21.443Z,5.26
2023-03-07T08:38:52.230Z,4.93
2023-03-07T08:41:22.941Z,5.27
2023-03-07T08:43:51.336Z,5.57
2023-03-07T08:46:19.457Z,5.18
2023-03-07T08:48:47.689Z,5.44
2023-03-07T08:51:18.554Z,5.89
2023-03-07T08:53:47.257Z,6.21
2023-03-07T08:56:17.893Z,5.20
2023-03-07T08:58:47.867Z,5.40
2023-03-07T09:01:15.982Z,5.39
2023-03-07T09:03:44.312Z,5.99
2023-03-07T09:06:18.018Z,5.97
2023-03-07T09:08:46.279Z,5.66
2023-03-07T09:11:14.651Z,5.77
2023-03-07T09:13:51.513Z,6.02
2023-03-07T09:16:22.608Z,6.21
2023-03-07T09:18:50.865Z,6.33
2023-03-07T09:21:19.063Z,6.48
2023-03-07T09:23:47.275Z,6.39
2023-03-07T09:26:15.716Z,6.19
2023-03-07T09:28:44.237Z,6.38
2023-03-07T09:31:13.954Z,6.50
2023-03-07T09:33:46.661Z,6.43
2023-03-07T09:36:15.910Z,7.00
2023-03-07T09:38:43.943Z,6.35
2023-03-07T09:41:31.830Z,6.29
2023-03-07T09:44:09.576Z,6.12
2023-03-07T09:47:11.097Z,5.94
2023-03-07T09:49:47.529Z,6.44
2023-03-07T09:52:19.188Z,6.65
2023-03-07T09:54:51.340Z,6.66
2023-03-07T09:57:24.189Z,6.50
2023-03-07T09:59:56.771Z,6.27
2023-03-07T10:02:30.215Z,6.54
2023-03-07T10:05:06.025Z,7.17
2023-03-07T10:07:35.610Z,7.10
2023-03-07T10:10:07.113Z,6.68
2023-03-07T10:12:57.002Z,6.66
2023-03-07T10:15:46.920Z,6.99
2023-03-07T10:18:38.656Z,6.46
2023-03-07T10:21:18.494Z,6.63
2023-03-07T10:24:16.931Z,6.96
2023-03-07T10:26:53.071Z,6.62
2023-03-07T10:29:25.581Z,6.60
2023-03-07T10:31:57.661Z,7.03
2023-03-07T10:34:30.119Z,6.07
2023-03-07T10:37:09.202Z,6.10
2023-03-07T10:39:43.622Z,6.78
2023-03-07T10:42:13.179Z,6.48
2023-03-07T10:44:42.124Z,6.51
2023-03-07T10:47:19.899Z,6.39
2023-03-07T10:49:50.316Z,6.73
2023-03-07T10:52:30.476Z,7.08
2023-03-07T10:55:31.313Z,6.82
2023-03-07T10:58:14.407Z,6.78
2023-03-07T11:00:44.457Z,6.79
2023-03-07T11:03:26.692Z,7.11
2023-03-07T11:05:55.236Z,7.22
2023-03-07T11:08:29.735Z,6.41
2023-03-07T11:10:58.151Z,6.69
2023-03-07T11:13:26.418Z,5.79
2023-03-07T11:16:11.873Z,6.53
2023-03-07T11:18:42.709Z,5.97
2023-03-07T11:21:28.674Z,6.37
2023-03-07T11:24:03.694Z,6.06
2023-03-07T11:26:39.332Z,6.42
2023-03-07T11:29:12.076Z,6.84
2023-03-07T11:31:48.700Z,6.50
2023-03-07T11:34:28.893Z,6.77
2023-03-07T11:37:16.756Z,6.66
2023-03-07T11:39:53.770Z,6.86
2023-03-07T11:42:26.486Z,7.18
2023-03-07T11:44:58.624Z,6.44
2023-03-07T11:47:37.268Z,6.70
2023-03-07T11:50:23.538Z,6.40
2023-03-07T11:53:27.156Z,6.30
2023-03-07T11:56:15.133Z,6.35
2023-03-07T11:58:59.894Z,6.06
2023-03-07T12:01:35.697Z,6.07
2023-03-07T12:04:34.373Z,6.13
2023-03-07T12:07:12.257Z,6.68
2023-03-07T12:09:55.305Z,6.95
2023-03-07T12:12:41.697Z,7.23
2023-03-07T12:15:28.421Z,7.12
2023-03-07T12:18:13.166Z,6.83
2023-03-07T12:20:50.113Z,6.78
2023-03-07T12:23:22.015Z,6.92
2023-03-07T12:25:54.106Z,7.07
2023-03-07T12:28:29.508Z,6.96
2023-03-07T12:31:03.652Z,6.81
2023-03-07T12:33:47.997Z,6.68
2023-03-07T12:36:25.310Z,7.11
2023-03-07T12:38:59.945Z,7.40
2023-03-07T12:41:48.899Z,6.99
2023-03-07T12:44:30.641Z,6.84
2023-03-07T12:47:04.830Z,6.70
2023-03-07T12:49:49.037Z,7.30
2023-03-07T12:52:26.762Z,8.12
2023-03-07T12:55:00.588Z,7.80
2023-03-07T12:57:35.606Z,7.91
2023-03-07T13:00:11.684Z,7.60
2023-03-07T13:02:44.655Z,8.58
2023-03-07T13:05:22.080Z,7.50
2023-03-07T13:07:51.435Z,7.72
2023-03-07T13:10:22.651Z,7.76
2023-03-07T13:12:52.244Z,7.05
2023-03-07T13:16:01.816Z,7.28
2023-03-07T13:18:33.070Z,7.28
2023-03-07T13:21:34.199Z,7.66
2023-03-07T13:24:35.838Z,7.15
2023-03-07T13:27:05.192Z,7.23
2023-03-07T13:30:18.593Z,7.13
2023-03-07T13:33:01.396Z,7.51
2023-03-07T13:35:57.884Z,7.83
2023-03-07T13:38:44.733Z,7.66
2023-03-07T13:41:14.823Z,7.67
2023-03-07T13:44:02.205Z,7.15
2023-03-07T13:46:51.779Z,7.28
2023-03-07T13:49:45.901Z,7.81
2023-03-07T13:52:44.245Z,6.58
2023-03-07T13:55:23.532Z,7.77
2023-03-07T13:57:51.983Z,8.10
2023-03-07T14:00:25.787Z,7.41
2023-03-07T14:02:55.385Z,7.41
2023-03-07T14:05:24.038Z,6.98
2023-03-07T14:07:54.846Z,7.12
2023-03-07T14:10:28.270Z,7.95
2023-03-07T14:13:34.968Z,6.86
2023-03-07T14:16:18.612Z,7.24
2023-03-07T14:18:56.363Z,7.21
2023-03-07T14:21:34.951Z,7.93
2023-03-07T14:24:33.593Z,8.13
2023-03-07T14:27:05.891Z,7.81
2023-03-07T14:29:34.162Z,7.95
2023-03-07T14:32:02.249Z,7.65
2023-03-07T14:34:32.168Z,7.06
2023-03-07T14:37:02.582Z,7.02
2023-03-07T14:39:43.186Z,7.85
2023-03-07T14:42:21.826Z,7.57
2023-03-07T14:45:10.755Z,7.20
2023-03-07T14:47:58.640Z,7.66
2023-03-07T14:50:28.603Z,7.50
2023-03-07T14:53:02.399Z,7.96
2023-03-07T14:55:36.914Z,7.22
2023-03-07T14:58:07.146Z,7.12
2023-03-07T15:00:36.328Z,6.94
2023-03-07T15:03:08.310Z,7.23
2023-03-07T15:05:47.221Z,7.15
2023-03-07T15:08:19.896Z,7.50
2023-03-07T15:10:56.728Z,7.83
2023-03-07T15:13:30.207Z,7.42
2023-03-07T15:16:03.677Z,7.36
2023-03-07T15:18:36.546Z,7.14
2023-03-07T15:21:06.928Z,7.36
2023-03-07T15:23:35.543Z,6.95
2023-03-07T15:26:06.691Z,7.27
2023-03-07T15:28:40.355Z,7.74
2023-03-07T15:31:09.406Z,7.60
2023-03-07T15:33:37.771Z,7.82
2023-03-07T15:36:21.726Z,7.80
2023-03-07T15:38:51.437Z,7.56
2023-03-07T15:41:30.527Z,7.86
2023-03-07T15:44:15.747Z,8.45
2023-03-07T15:46:46.720Z,7.50
2023-03-07T15:49:27.256Z,7.76
2023-03-07T15:51:58.211Z,7.88
2023-03-07T15:54:38.714Z,7.72
2023-03-07T15:57:09.670Z,7.62
2023-03-07T15:59:42.855Z,7.38
2023-03-07T16:02:45.727Z,7.41
2023-03-07T16:05:37.730Z,7.77
2023-03-07T16:08:16.646Z,7.98
2023-03-07T16:10:52.217Z,8.08
2023-03-07T16:13:23.035Z,7.71
2023-03-07T16:16:09.291Z,7.42
2023-03-07T16:18:37.885Z,7.13
2023-03-07T16:21:06.282Z,7.31
2023-03-07T16:23:35.102Z,7.18
2023-03-07T16:26:06.101Z,7.43
2023-03-07T16:28:34.929Z,7.18
2023-03-07T16:31:04.713Z,6.95
2023-03-07T16:33:33.001Z,7.15
2023-03-07T16:36:01.103Z,6.56
2023-03-07T16:38:29.327Z,6.49
2023-03-07T16:40:59.222Z,7.14
2023-03-07T16:43:34.571Z,6.91
2023-03-07T16:46:06.431Z,7.32
2023-03-07T16:48:35.021Z,7.03
2023-03-07T16:51:03.438Z,6.86
2023-03-07T16:53:31.778Z,6.55
2023-03-07T16:56:00.383Z,6.76
2023-03-07T16:58:32.248Z,6.82
2023-03-07T17:01:00.909Z,6.94
2023-03-07T17:03:30.928Z,6.80
2023-03-07T17:05:59.396Z,7.37
2023-03-07T17:08:27.473Z,6.99
2023-03-07T17:10:55.708Z,6.87
2023-03-07T17:13:24.348Z,7.03
2023-03-07T17:15:52.544Z,7.18
2023-03-07T17:18:22.446Z,6.77
2023-03-07T17:20:52.210Z,6.84
2023-03-07T17:23:22.324Z,6.82
2023-03-07T17:25:50.739Z,6.67
2023-03-07T17:28:20.449Z,7.02
2023-03-07T17:30:50.049Z,6.85
2023-03-07T17:33:20.674Z,6.97
2023-03-07T17:35:48.931Z,7.13
2023-03-07T17:38:18.400Z,7.08
2023-03-07T17:40:46.542Z,7.17
2023-03-07T17:43:14.876Z,6.98
2023-03-07T17:45:42.979Z,6.97
2023-03-07T17:48:11.093Z,7.16
2023-03-07T17:50:41.217Z,6.86
2023-03-07T17:53:09.645Z,6.74
2023-03-07T17:55:39.811Z,6.80
2023-03-07T17:58:23.371Z,6.88
2023-03-07T18:01:08.270Z,6.90
2023-03-07T18:03:41.989Z,6.52
2023-03-07T18:06:12.598Z,6.35
2023-03-07T18:08:40.683Z,6.32
2023-03-07T18:11:11.616Z,6.39
2023-03-07T18:13:40.382Z,6.45
2023-03-07T18:16:09.683Z,6.53
2023-03-07T18:18:50.536Z,6.36
2023-03-07T18:21:26.668Z,6.46
2023-03-07T18:23:54.798Z,6.58
2023-03-07T18:26:24.453Z,6.46
2023-03-07T18:28:53.723Z,6.43
2023-03-07T18:31:25.195Z,6.21
2023-03-07T18:33:55.346Z,6.58
2023-03-07T18:36:26.226Z,6.61
2023-03-07T18:38:54.577Z,6.33
2023-03-07T18:41:26.366Z,6.23
2023-03-07T18:43:55.499Z,6.69
2023-03-07T18:46:26.370Z,6.53
2023-03-07T18:48:54.948Z,6.64
2023-03-07T18:51:25.087Z,6.60
2023-03-07T18:53:53.783Z,6.67
2023-03-07T18:56:22.443Z,6.87
2023-03-07T18:58:55.805Z,6.86
2023-03-07T19:01:26.362Z,6.80
2023-03-07T19:03:57.188Z,6.81
2023-03-07T19:06:27.457Z,6.65
2023-03-07T19:08:55.617Z,7.01
2023-03-07T19:11:23.671Z,6.91
2023-03-07T19:13:53.271Z,7.06
2023-03-07T19:16:23.603Z,7.18
2023-03-07T19:18:52.738Z,7.26
2023-03-07T19:21:23.100Z,7.36
2023-03-07T19:23:52.610Z,7.11
2023-03-07T19:26:22.077Z,7.27
2023-03-07T19:28:52.066Z,7.30
2023-03-07T19:31:24.115Z,7.35
2023-03-07T19:33:53.455Z,7.11
2023-03-07T19:36:24.598Z,7.26
2023-03-07T19:38:56.480Z,7.08
2023-03-07T19:41:26.461Z,7.08
2023-03-07T19:43:56.069Z,7.15
2023-03-07T19:46:25.857Z,7.13
2023-03-07T19:48:54.725Z,7.10
2023-03-07T19:51:24.756Z,7.32
2023-03-07T19:53:55.355Z,7.20
2023-03-07T19:56:28.326Z,7.41
2023-03-07T19:58:56.839Z,7.37
2023-03-07T20:01:27.531Z,7.34
2023-03-07T20:03:56.919Z,7.36
2023-03-07T20:06:26.564Z,7.51
2023-03-07T20:08:55.959Z,7.47
2023-03-07T20:11:27.321Z,7.51
2023-03-07T20:13:57.167Z,7.62
2023-03-07T20:16:29.433Z,7.74
2023-03-07T20:18:59.916Z,7.92
2023-03-07T20:21:29.452Z,7.78
2023-03-07T20:23:59.859Z,7.91
2023-03-07T20:26:31.476Z,7.93
2023-03-07T20:29:00.297Z,7.95
2023-03-07T20:31:30.088Z,7.88
2023-03-07T20:33:59.898Z,7.94
2023-03-07T20:36:29.751Z,7.96
2023-03-07T20:38:59.685Z,8.06
2023-03-07T20:41:29.582Z,8.06
2023-03-07T20:44:00.837Z,8.05
2023-03-07T20:46:31.280Z,7.88
2023-03-07T20:49:01.320Z,7.82
2023-03-07T20:51:31.570Z,7.87
2023-03-07T20:54:01.315Z,7.74
2023-03-07T20:56:31.536Z,7.70
2023-03-07T20:59:00.515Z,7.66
2023-03-07T21:01:31.595Z,7.70
2023-03-07T21:04:04.007Z,7.68
2023-03-07T21:06:32.177Z,7.55
2023-03-07T21:09:00.857Z,7.49
2023-03-07T21:11:31.508Z,7.62
2023-03-07T21:13:59.669Z,7.81
2023-03-07T21:16:28.396Z,7.87
2023-03-07T21:19:01.615Z,7.90
2023-03-07T21:21:31.888Z,7.88
2023-03-07T21:24:00.485Z,7.94
2023-03-07T21:26:30.376Z,7.73
2023-03-07T21:28:59.481Z,7.86
2023-03-07T21:31:29.184Z,7.94
2023-03-07T21:34:01.613Z,7.95
2023-03-07T21:36:31.457Z,7.61
2023-03-07T21:39:00.412Z,7.64
2023-03-07T21:41:30.375Z,7.86
2023-03-07T21:43:59.432Z,7.77
2023-03-07T21:46:27.747Z,7.35
2023-03-07T21:48:56.245Z,7.41
2023-03-07T21:51:25.718Z,7.62
2023-03-07T21:53:53.809Z,7.26
2023-03-07T21:56:23.933Z,7.38
2023-03-07T21:58:52.943Z,7.24
2023-03-07T22:01:23.203Z,7.27
2023-03-07T22:03:53.203Z,7.32
2023-03-07T22:06:21.706Z,7.45
2023-03-07T22:08:51.145Z,7.64
2023-03-07T22:11:19.267Z,6.83
2023-03-07T22:13:47.429Z,6.88
2023-03-07T22:16:17.887Z,7.12
2023-03-07T22:18:46.130Z,7.20
2023-03-07T22:21:17.375Z,6.90
2023-03-07T22:23:45.940Z,6.94
2023-03-07T22:26:15.361Z,7.14
2023-03-07T22:28:43.540Z,7.31
2023-03-07T22:31:13.353Z,6.90
2023-03-07T22:33:42.695Z,6.78
2023-03-07T22:36:13.837Z,7.27
2023-03-07T22:38:42.964Z,7.54
2023-03-07T22:41:13.468Z,7.35
2023-03-07T22:43:43.704Z,7.21
2023-03-07T22:46:13.149Z,7.05
2023-03-07T22:48:41.649Z,7.03
2023-03-07T22:51:13.690Z,7.11
2023-03-07T22:53:42.044Z,7.12
2023-03-07T22:56:15.935Z,7.10
2023-03-07T22:58:45.874Z,7.30
2023-03-07T23:01:15.616Z,7.19
2023-03-07T23:03:44.331Z,7.53
2023-03-07T23:06:13.461Z,7.23
2023-03-07T23:08:41.691Z,7.02
2023-03-07T23:11:10.476Z,7.13
2023-03-07T23:13:38.803Z,7.44
2023-03-07T23:16:10.934Z,7.44
2023-03-07T23:18:40.359Z,7.47
2023-03-07T23:21:10.167Z,7.63
2023-03-07T23:23:38.726Z,7.94
2023-03-07T23:26:07.208Z,7.54
2023-03-07T23:28:35.804Z,7.96
2023-03-07T23:31:04.290Z,7.75
2023-03-07T23:33:33.921Z,7.59
2023-03-07T23:36:03.273Z,7.47
2023-03-07T23:38:31.897Z,7.40
2023-03-07T23:41:00.271Z,7.57
2023-03-07T23:43:28.447Z,7.49
2023-03-07T23:45:56.626Z,7.09
2023-03-07T23:48:24.734Z,7.64
2023-03-07T23:50:54.189Z,7.38
2023-03-07T23:53:22.241Z,7.25
2023-03-07T23:55:50.281Z,6.84
2023-03-07T23:58:18.501Z,7.12
